Hamberg, North Dakota
Current Conditions -  °F | °C
As of 9:15 AM on Friday 19 Dec 2014 (Local Time) from K5H4 Reporting Station
Haze Haze  
Wind Chill: 16°   Ceiling: 200
Heat Index: 25°   Visibility: 2.5mi
Dew Point: 25°   Wind: 8mph
Humidity: 100%   Direction: 240°WSW
Pressure: 29.96"   Gusts: NA
Location:  47.76°N, 99.51°W
Report Text: K5H4 191515Z AUTO 24007KT 2 1/2SM BR OVC002 M04/M04 A2996 RMK AO2
Loading
Personal Weather Stations






























Interactive Weather Map New forecast layout! Learn more

10-Day Weather Forecast

Advertisements
Track Severe Weather on mobile